createdAt,value
2019-05-03T00:02:47.237Z,22.27
2019-05-03T00:05:36.272Z,21.30
2019-05-03T00:08:08.193Z,21.43
2019-05-03T00:10:38.820Z,20.57
2019-05-03T00:13:09.116Z,21.93
2019-05-03T00:16:02.681Z,22.10
2019-05-03T00:18:33.277Z,20.40
2019-05-03T00:21:03.581Z,21.93
2019-05-03T00:23:33.806Z,20.10
2019-05-03T00:26:04.157Z,21.27
2019-05-03T00:28:34.415Z,21.43
2019-05-03T00:31:04.723Z,21.20
2019-05-03T00:33:36.815Z,21.40
2019-05-03T00:36:22.499Z,21.03
2019-05-03T00:38:55.721Z,20.07
2019-05-03T00:41:25.979Z,21.13
2019-05-03T00:43:56.275Z,21.10
2019-05-03T00:46:26.573Z,21.20
2019-05-03T00:48:56.865Z,21.17
2019-05-03T00:51:27.129Z,22.33
2019-05-03T00:53:57.332Z,20.90
2019-05-03T00:56:27.618Z,21.90
2019-05-03T00:58:59.216Z,20.83
2019-05-03T01:01:29.543Z,20.60
2019-05-03T01:04:01.649Z,21.13
2019-05-03T01:06:31.914Z,21.03
2019-05-03T01:09:03.838Z,20.90
2019-05-03T01:11:34.185Z,20.50
2019-05-03T01:14:04.773Z,21.93
2019-05-03T01:16:35.092Z,21.00
2019-05-03T01:19:05.375Z,21.30
2019-05-03T01:21:35.642Z,21.57
2019-05-03T01:24:05.881Z,20.90
2019-05-03T01:26:36.170Z,20.60
2019-05-03T01:29:06.448Z,21.13
2019-05-03T01:31:36.715Z,22.13
2019-05-03T01:34:07.344Z,22.07
2019-05-03T01:36:37.543Z,21.50
2019-05-03T01:39:07.945Z,20.73
2019-05-03T01:41:38.207Z,21.00
2019-05-03T01:44:08.440Z,20.60
2019-05-03T01:46:38.824Z,21.40
2019-05-03T01:49:29.452Z,20.40
2019-05-03T01:52:21.795Z,21.47
2019-05-03T01:54:52.196Z,19.73
2019-05-03T01:57:22.585Z,20.20
2019-05-03T01:59:52.873Z,20.53
2019-05-03T02:02:45.126Z,19.87
2019-05-03T02:05:42.323Z,20.63
2019-05-03T02:08:14.035Z,18.93
2019-05-03T02:10:44.288Z,20.17
2019-05-03T02:13:14.585Z,19.97
2019-05-03T02:15:44.848Z,19.47
2019-05-03T02:18:15.267Z,19.90
2019-05-03T02:20:45.600Z,19.73
2019-05-03T02:23:15.902Z,19.90
2019-05-03T02:25:55.969Z,19.73
2019-05-03T02:28:18.094Z,20.43
2019-05-03T02:30:48.393Z,19.57
2019-05-03T02:33:18.608Z,19.10
2019-05-03T02:35:48.787Z,20.53
2019-05-03T02:38:19.176Z,19.77
2019-05-03T02:40:49.387Z,20.23
2019-05-03T02:43:27.974Z,19.27
2019-05-03T02:46:17.213Z,19.70
2019-05-03T02:48:55.681Z,18.43
2019-05-03T02:51:26.430Z,19.93
2019-05-03T02:53:57.334Z,18.90
2019-05-03T02:56:27.673Z,19.00
2019-05-03T02:58:57.980Z,18.47
2019-05-03T03:01:28.837Z,19.13
2019-05-03T03:03:59.416Z,18.73
2019-05-03T03:06:31.550Z,19.03
2019-05-03T03:09:05.313Z,19.37
2019-05-03T03:11:38.260Z,18.93
2019-05-03T03:14:11.617Z,19.53
2019-05-03T03:16:45.580Z,19.70
2019-05-03T03:19:17.287Z,20.13
2019-05-03T03:21:50.304Z,19.97
2019-05-03T03:24:25.647Z,19.90
2019-05-03T03:26:57.161Z,20.80
2019-05-03T03:29:28.609Z,20.50
2019-05-03T03:32:29.336Z,20.30
2019-05-03T03:35:10.535Z,21.30
2019-05-03T03:37:36.557Z,20.73
2019-05-03T03:40:07.184Z,19.93
2019-05-03T03:42:39.273Z,21.30
2019-05-03T03:45:09.715Z,21.07
2019-05-03T03:47:40.201Z,21.73
2019-05-03T03:50:11.121Z,20.77
2019-05-03T03:52:45.042Z,22.00
2019-05-03T03:55:15.862Z,21.70
2019-05-03T03:57:47.039Z,23.27
2019-05-03T04:00:17.967Z,23.03
2019-05-03T04:02:48.197Z,23.60
2019-05-03T04:05:18.471Z,23.03
2019-05-03T04:07:48.727Z,24.47
2019-05-03T04:10:19.003Z,24.53
2019-05-03T04:12:49.413Z,24.03
2019-05-03T04:15:45.482Z,24.40
2019-05-03T04:18:25.542Z,23.67
2019-05-03T04:20:56.255Z,23.90
2019-05-03T04:23:26.785Z,24.70
2019-05-03T04:25:57.385Z,24.50
2019-05-03T04:28:27.745Z,24.77
2019-05-03T04:30:58.042Z,24.97
2019-05-03T04:33:28.307Z,25.27
2019-05-03T04:35:58.587Z,24.90
2019-05-03T04:38:28.804Z,24.57
2019-05-03T04:40:59.129Z,23.77
2019-05-03T04:43:29.350Z,24.33
2019-05-03T04:46:16.725Z,24.07
2019-05-03T04:48:46.946Z,24.60
2019-05-03T04:51:17.239Z,23.90
2019-05-03T04:53:55.878Z,24.17
2019-05-03T04:56:26.234Z,24.93
2019-05-03T04:58:56.589Z,24.20
2019-05-03T05:01:26.866Z,24.17
2019-05-03T05:03:57.180Z,23.07
2019-05-03T05:06:27.384Z,25.23
2019-05-03T05:08:57.680Z,24.73
2019-05-03T05:11:27.934Z,25.43
2019-05-03T05:13:58.231Z,23.33
2019-05-03T05:16:28.529Z,23.07
2019-05-03T05:19:05.311Z,24.40
2019-05-03T05:21:44.839Z,24.30
2019-05-03T05:24:15.233Z,24.73
2019-05-03T05:26:52.200Z,23.73
2019-05-03T05:29:25.367Z,22.43
2019-05-03T05:31:55.744Z,22.00
2019-05-03T05:34:26.065Z,20.10
2019-05-03T05:36:56.338Z,20.90
2019-05-03T05:39:26.667Z,19.83
2019-05-03T05:41:57.138Z,19.00
2019-05-03T05:44:27.428Z,19.97
2019-05-03T05:47:15.077Z,20.27
2019-05-03T05:49:52.079Z,19.57
2019-05-03T05:52:24.403Z,20.23
2019-05-03T05:55:05.839Z,18.53
2019-05-03T05:58:01.815Z,18.10
2019-05-03T06:00:29.467Z,18.90
2019-05-03T06:02:59.765Z,17.17
2019-05-03T06:05:30.097Z,17.27
2019-05-03T06:08:19.710Z,18.10
2019-05-03T06:11:06.555Z,18.80
2019-05-03T06:13:40.848Z,16.80
2019-05-03T06:16:36.028Z,16.77
2019-05-03T06:19:16.378Z,17.80
2019-05-03T06:21:54.992Z,18.20
2019-05-03T06:24:29.604Z,18.17
2019-05-03T06:27:08.422Z,19.23
2019-05-03T06:29:39.080Z,18.83
2019-05-03T06:32:22.945Z,18.00
2019-05-03T06:34:54.619Z,16.03
2019-05-03T06:37:26.984Z,16.20
2019-05-03T06:39:57.203Z,15.53
2019-05-03T06:42:27.423Z,18.80
2019-05-03T06:44:59.738Z,14.53
2019-05-03T06:47:29.733Z,15.43
2019-05-03T06:49:59.972Z,14.80
2019-05-03T06:52:30.242Z,12.03
2019-05-03T06:55:06.513Z,11.20
2019-05-03T06:57:32.443Z,9.87
2019-05-03T07:00:21.727Z,7.40
2019-05-03T07:03:11.765Z,7.63
2019-05-03T07:05:59.708Z,8.80
2019-05-03T07:08:41.286Z,9.27
2019-05-03T07:11:11.664Z,11.83
2019-05-03T07:13:41.911Z,12.53
2019-05-03T07:16:12.188Z,12.33
2019-05-03T07:18:42.609Z,9.80
2019-05-03T07:21:12.910Z,9.17
2019-05-03T07:23:44.985Z,9.20
2019-05-03T07:26:15.232Z,9.27
2019-05-03T07:28:49.315Z,9.60
2019-05-03T07:31:17.527Z,8.60
2019-05-03T07:33:47.802Z,9.13
2019-05-03T07:36:18.182Z,7.97
2019-05-03T07:38:48.456Z,7.57
2019-05-03T07:41:18.784Z,7.00
2019-05-03T07:43:49.080Z,7.43
2019-05-03T07:46:19.477Z,8.17
2019-05-03T07:48:49.736Z,8.27
2019-05-03T07:51:20.117Z,8.50
2019-05-03T07:53:50.449Z,8.57
2019-05-03T07:56:20.836Z,9.20
2019-05-03T07:59:02.836Z,9.27
2019-05-03T08:01:35.599Z,9.63
2019-05-03T08:04:06.271Z,9.90
2019-05-03T08:06:36.702Z,21.37
2019-05-03T08:09:08.493Z,11.43
2019-05-03T08:11:38.918Z,14.63
2019-05-03T08:14:12.092Z,14.67
2019-05-03T08:16:42.420Z,12.53
2019-05-03T08:19:15.060Z,16.53
2019-05-03T08:21:45.310Z,17.17
2019-05-03T08:24:15.604Z,10.40
2019-05-03T08:26:45.942Z,10.43
2019-05-03T08:29:19.397Z,10.40
2019-05-03T08:32:01.244Z,9.87
2019-05-03T08:34:59.289Z,9.07
2019-05-03T08:37:40.997Z,7.77
2019-05-03T08:40:12.071Z,8.47
2019-05-03T08:42:44.447Z,8.03
2019-05-03T08:45:14.955Z,7.87
2019-05-03T08:47:45.308Z,8.60
2019-05-03T08:50:21.204Z,9.47
2019-05-03T08:52:47.852Z,9.43
2019-05-03T08:55:18.198Z,9.70
2019-05-03T08:57:48.534Z,8.63
2019-05-03T09:00:20.944Z,8.57
2019-05-03T09:02:51.332Z,8.90
2019-05-03T09:05:21.565Z,9.93
2019-05-03T09:07:51.877Z,9.00
2019-05-03T09:10:47.155Z,9.60
2019-05-03T09:13:18.866Z,10.63
2019-05-03T09:15:49.703Z,8.20
2019-05-03T09:18:20.023Z,8.70
2019-05-03T09:20:50.247Z,7.77
2019-05-03T09:23:23.218Z,7.60
2019-05-03T09:25:54.608Z,7.57
2019-05-03T09:28:26.438Z,8.10
2019-05-03T09:30:56.589Z,7.83
2019-05-03T09:33:27.049Z,8.13
2019-05-03T09:35:57.314Z,10.30
2019-05-03T09:38:27.657Z,9.97
2019-05-03T09:40:57.922Z,8.40
2019-05-03T09:43:28.328Z,8.43
2019-05-03T09:45:58.561Z,9.03
2019-05-03T09:48:28.789Z,8.00
2019-05-03T09:50:59.093Z,7.80
2019-05-03T09:53:32.230Z,7.60
2019-05-03T09:56:04.897Z,7.30
2019-05-03T09:58:36.411Z,7.37
2019-05-03T10:01:08.535Z,6.93
2019-05-03T10:03:38.365Z,5.57
2019-05-03T10:06:08.563Z,5.53
2019-05-03T10:08:38.996Z,5.90
2019-05-03T10:11:12.166Z,5.67
2019-05-03T10:13:42.516Z,6.10
2019-05-03T10:16:15.312Z,5.87
2019-05-03T10:18:45.870Z,5.17
2019-05-03T10:21:16.590Z,5.60
2019-05-03T10:23:47.014Z,5.40
2019-05-03T10:26:17.289Z,5.83
2019-05-03T10:28:47.494Z,6.93
2019-05-03T10:31:17.804Z,5.93
2019-05-03T10:33:56.234Z,5.37
2019-05-03T10:36:26.492Z,4.53
2019-05-03T10:38:56.781Z,4.30
2019-05-03T10:41:27.214Z,5.37
2019-05-03T10:43:57.519Z,5.43
2019-05-03T10:46:27.843Z,4.27
2019-05-03T10:48:58.088Z,5.20
2019-05-03T10:51:30.533Z,4.97
2019-05-03T10:54:00.942Z,4.87
2019-05-03T10:56:38.291Z,5.40
2019-05-03T10:59:09.477Z,5.20
2019-05-03T11:01:50.688Z,5.40
2019-05-03T11:04:20.900Z,5.03
2019-05-03T11:06:51.211Z,5.70
2019-05-03T11:09:21.599Z,5.77
2019-05-03T11:11:51.912Z,6.37
2019-05-03T11:14:22.176Z,6.30
2019-05-03T11:16:52.450Z,6.07
2019-05-03T11:19:22.750Z,7.47
2019-05-03T11:21:54.737Z,7.07
2019-05-03T11:24:27.540Z,7.00
2019-05-03T11:27:00.227Z,5.93
2019-05-03T11:29:30.706Z,6.03
2019-05-03T11:32:20.013Z,5.67
2019-05-03T11:35:11.748Z,5.90
2019-05-03T11:37:49.070Z,5.53
2019-05-03T11:40:19.462Z,5.20
2019-05-03T11:42:50.836Z,5.37
2019-05-03T11:45:21.191Z,6.93
2019-05-03T11:47:51.411Z,6.03
2019-05-03T11:50:21.841Z,5.93
2019-05-03T11:52:52.166Z,6.17
2019-05-03T11:55:22.503Z,6.30
2019-05-03T11:57:52.831Z,5.80
2019-05-03T12:00:29.808Z,6.67
2019-05-03T12:03:09.314Z,6.47
2019-05-03T12:05:40.993Z,6.10
2019-05-03T12:08:12.346Z,5.90
2019-05-03T12:10:55.163Z,6.13
2019-05-03T12:13:24.559Z,5.60
2019-05-03T12:15:55.324Z,4.60
2019-05-03T12:18:26.284Z,4.70
2019-05-03T12:20:58.586Z,4.77
2019-05-03T12:23:31.993Z,4.60
2019-05-03T12:26:05.736Z,4.07
2019-05-03T12:28:35.228Z,5.03
2019-05-03T12:31:06.004Z,4.20
2019-05-03T12:33:36.366Z,4.93
2019-05-03T12:36:07.212Z,3.93
2019-05-03T12:38:37.493Z,4.67
2019-05-03T12:41:07.810Z,4.63
2019-05-03T12:43:38.086Z,4.37
2019-05-03T12:46:08.392Z,4.37
2019-05-03T12:48:38.709Z,3.47
2019-05-03T12:51:09.500Z,3.20
2019-05-03T12:53:40.117Z,3.40
2019-05-03T12:56:13.045Z,3.57
2019-05-03T12:59:07.239Z,3.00
2019-05-03T13:02:04.749Z,3.00
2019-05-03T13:04:36.766Z,2.83
2019-05-03T13:07:12.591Z,3.37
2019-05-03T13:09:45.144Z,3.60
2019-05-03T13:12:16.832Z,3.47
2019-05-03T13:14:47.049Z,3.67
2019-05-03T13:17:19.053Z,3.47
2019-05-03T13:19:49.316Z,3.70
2019-05-03T13:22:19.662Z,4.00
2019-05-03T13:24:50.049Z,3.63
2019-05-03T13:27:20.289Z,3.63
2019-05-03T13:29:55.556Z,3.50
2019-05-03T13:32:25.773Z,3.47
2019-05-03T13:34:56.026Z,4.00
2019-05-03T13:37:26.374Z,5.23
2019-05-03T13:39:56.572Z,3.67
2019-05-03T13:42:26.876Z,3.60
2019-05-03T13:44:57.158Z,3.60
2019-05-03T13:47:27.486Z,3.30
2019-05-03T13:49:57.731Z,3.80
2019-05-03T13:52:27.956Z,3.50
2019-05-03T13:54:58.261Z,3.47
2019-05-03T13:57:28.539Z,3.40
2019-05-03T13:59:58.717Z,3.00
2019-05-03T14:02:28.908Z,3.40
2019-05-03T14:04:59.513Z,3.50
2019-05-03T14:07:29.861Z,3.13
2019-05-03T14:10:00.258Z,3.03
2019-05-03T14:12:30.548Z,3.37
2019-05-03T14:15:00.752Z,2.93
2019-05-03T14:17:30.960Z,3.07
2019-05-03T14:20:20.233Z,3.20
2019-05-03T14:22:51.453Z,2.20
2019-05-03T14:25:21.755Z,2.20
2019-05-03T14:27:51.954Z,2.43
2019-05-03T14:30:22.273Z,2.97
2019-05-03T14:32:52.615Z,4.03
2019-05-03T14:35:24.966Z,3.20
2019-05-03T14:37:55.178Z,4.10
2019-05-03T14:40:25.491Z,3.60
2019-05-03T14:42:55.826Z,2.73
2019-05-03T14:45:26.029Z,2.40
2019-05-03T14:47:57.645Z,2.77
2019-05-03T14:50:28.253Z,2.30
2019-05-03T14:52:58.479Z,1.87
2019-05-03T14:55:53.482Z,1.57
2019-05-03T14:58:45.711Z,1.60
2019-05-03T15:01:29.036Z,1.50
2019-05-03T15:03:59.347Z,2.03
2019-05-03T15:06:29.527Z,1.90
2019-05-03T15:08:59.824Z,1.70
2019-05-03T15:11:30.051Z,2.40
2019-05-03T15:14:00.353Z,2.17
2019-05-03T15:16:30.791Z,2.53
2019-05-03T15:19:01.024Z,2.70
2019-05-03T15:21:31.400Z,2.43
2019-05-03T15:24:01.739Z,3.00
2019-05-03T15:26:32.037Z,3.43
2019-05-03T15:29:02.386Z,5.00
2019-05-03T15:31:35.346Z,3.80
2019-05-03T15:34:06.729Z,3.83
2019-05-03T15:36:37.024Z,4.60
2019-05-03T15:39:07.642Z,4.13
2019-05-03T15:41:38.058Z,6.70
2019-05-03T15:44:25.253Z,10.30
2019-05-03T15:47:09.850Z,3.80
2019-05-03T15:49:37.802Z,4.60
2019-05-03T15:52:08.093Z,3.80
2019-05-03T15:54:38.487Z,3.50
2019-05-03T15:57:08.842Z,3.40
2019-05-03T15:59:39.118Z,3.30
2019-05-03T16:02:09.596Z,3.27
2019-05-03T16:04:40.070Z,2.83
2019-05-03T16:07:10.409Z,3.17
2019-05-03T16:09:40.700Z,2.70
2019-05-03T16:12:11.135Z,2.13
2019-05-03T16:14:41.443Z,2.23
2019-05-03T16:17:11.721Z,2.30
2019-05-03T16:19:42.032Z,2.20
2019-05-03T16:22:14.271Z,2.30
2019-05-03T16:24:44.799Z,2.23
2019-05-03T16:27:42.219Z,1.60
2019-05-03T16:30:28.036Z,2.20
2019-05-03T16:32:58.281Z,2.90
2019-05-03T16:35:28.478Z,3.10
2019-05-03T16:37:58.750Z,2.80
2019-05-03T16:40:29.007Z,3.40
2019-05-03T16:42:59.280Z,2.47
2019-05-03T16:45:29.583Z,3.10
2019-05-03T16:47:59.801Z,3.70
2019-05-03T16:50:30.111Z,4.13
2019-05-03T16:53:00.453Z,4.03
2019-05-03T16:55:30.791Z,4.10
2019-05-03T16:58:01.109Z,4.07
2019-05-03T17:00:31.407Z,4.53
2019-05-03T17:03:01.726Z,5.67
2019-05-03T17:06:02.912Z,6.33
2019-05-03T17:08:56.803Z,5.70
2019-05-03T17:11:27.606Z,13.90
2019-05-03T17:13:58.111Z,6.73
2019-05-03T17:16:28.433Z,6.17
2019-05-03T17:18:58.781Z,4.63
2019-05-03T17:21:29.090Z,4.00
2019-05-03T17:23:59.406Z,4.07
2019-05-03T17:26:29.727Z,4.00
2019-05-03T17:28:59.968Z,3.80
2019-05-03T17:31:30.320Z,3.03
2019-05-03T17:34:01.468Z,3.70
2019-05-03T17:36:31.748Z,2.70
2019-05-03T17:39:07.333Z,2.80
2019-05-03T17:41:54.960Z,3.10
2019-05-03T17:44:34.462Z,2.20
2019-05-03T17:47:04.653Z,2.30
2019-05-03T17:49:34.990Z,2.43
2019-05-03T17:52:24.470Z,2.30
2019-05-03T17:55:10.244Z,2.87
2019-05-03T17:58:05.402Z,2.50
2019-05-03T18:00:47.292Z,2.93
2019-05-03T18:03:21.373Z,2.73
2019-05-03T18:05:56.757Z,3.10
2019-05-03T18:08:42.096Z,3.10
2019-05-03T18:11:14.970Z,3.07
2019-05-03T18:13:45.308Z,3.07
2019-05-03T18:16:15.678Z,3.50
2019-05-03T18:18:45.964Z,3.37
2019-05-03T18:21:16.310Z,3.10
2019-05-03T18:23:46.658Z,2.47
2019-05-03T18:26:17.018Z,2.40
2019-05-03T18:28:47.307Z,2.33
2019-05-03T18:31:17.734Z,2.30
2019-05-03T18:33:48.031Z,2.53
2019-05-03T18:36:18.361Z,2.60
2019-05-03T18:38:48.680Z,3.10
2019-05-03T18:41:19.618Z,3.50
2019-05-03T18:44:11.939Z,4.00
2019-05-03T18:46:46.775Z,3.20
2019-05-03T18:49:17.178Z,2.87
2019-05-03T18:51:47.548Z,2.83
2019-05-03T18:54:20.647Z,2.80
2019-05-03T18:56:50.994Z,2.97
2019-05-03T18:59:21.319Z,2.70
2019-05-03T19:01:51.677Z,2.80
2019-05-03T19:04:40.302Z,2.67
2019-05-03T19:07:21.754Z,2.57
2019-05-03T19:10:00.106Z,2.70
2019-05-03T19:12:38.433Z,2.70
2019-05-03T19:15:09.069Z,2.90
2019-05-03T19:18:04.648Z,3.77
2019-05-03T19:20:35.314Z,3.23
2019-05-03T19:23:05.733Z,3.20
2019-05-03T19:25:46.313Z,2.90
2019-05-03T19:28:08.287Z,2.80
2019-05-03T19:30:38.002Z,2.97
2019-05-03T19:33:08.351Z,3.20
2019-05-03T19:35:38.696Z,3.00
2019-05-03T19:38:09.090Z,3.20
2019-05-03T19:40:39.412Z,3.03
2019-05-03T19:43:09.852Z,3.37
2019-05-03T19:45:40.219Z,3.00
2019-05-03T19:48:10.422Z,3.30
2019-05-03T19:50:40.769Z,3.23
2019-05-03T19:53:32.858Z,2.90
2019-05-03T19:56:05.485Z,2.97
2019-05-03T19:58:36.026Z,3.10
2019-05-03T20:01:31.255Z,3.67
2019-05-03T20:04:09.445Z,3.40
2019-05-03T20:06:46.938Z,3.03
2019-05-03T20:09:18.668Z,4.30
2019-05-03T20:11:49.031Z,4.40
2019-05-03T20:14:19.365Z,3.97
2019-05-03T20:16:49.690Z,3.63
2019-05-03T20:19:21.337Z,4.23
2019-05-03T20:21:51.869Z,3.57
2019-05-03T20:24:22.158Z,4.13
2019-05-03T20:26:52.466Z,4.27
2019-05-03T20:29:22.712Z,3.90
2019-05-03T20:31:55.052Z,4.33
2019-05-03T20:34:25.102Z,4.87
2019-05-03T20:36:55.356Z,4.40
2019-05-03T20:39:25.711Z,4.80
2019-05-03T20:41:56.173Z,3.60
2019-05-03T20:44:35.543Z,3.80
2019-05-03T20:47:16.389Z,3.70
2019-05-03T20:50:05.633Z,3.80
2019-05-03T20:52:36.199Z,3.30
2019-05-03T20:55:06.646Z,3.97
2019-05-03T20:57:37.034Z,4.30
2019-05-03T21:00:08.725Z,4.33
2019-05-03T21:02:50.821Z,4.60
2019-05-03T21:05:24.716Z,4.17
2019-05-03T21:07:45.510Z,4.20
2019-05-03T21:10:16.122Z,4.30
2019-05-03T21:12:46.492Z,4.10
2019-05-03T21:15:38.898Z,4.33
2019-05-03T21:18:27.486Z,4.17
2019-05-03T21:21:16.717Z,3.83
2019-05-03T21:23:50.854Z,3.50
2019-05-03T21:26:21.151Z,3.57
2019-05-03T21:28:51.448Z,4.23
2019-05-03T21:31:21.800Z,4.33
2019-05-03T21:33:52.149Z,4.33
2019-05-03T21:36:22.549Z,3.90
2019-05-03T21:38:54.761Z,3.57
2019-05-03T21:41:24.903Z,3.33
2019-05-03T21:43:55.253Z,3.60
2019-05-03T21:46:39.973Z,3.70
2019-05-03T21:49:16.109Z,3.40
2019-05-03T21:51:46.366Z,3.17
2019-05-03T21:54:16.751Z,3.83
2019-05-03T21:56:46.937Z,3.40
2019-05-03T21:59:17.244Z,3.20
2019-05-03T22:01:48.663Z,3.37
2019-05-03T22:04:19.011Z,3.23
2019-05-03T22:06:49.310Z,3.27
2019-05-03T22:09:19.885Z,3.20
2019-05-03T22:11:52.191Z,3.30
2019-05-03T22:14:36.609Z,3.30
2019-05-03T22:17:25.323Z,3.10
2019-05-03T22:20:00.097Z,3.20
2019-05-03T22:22:49.015Z,3.47
2019-05-03T22:25:24.431Z,3.90
2019-05-03T22:27:54.882Z,3.00
2019-05-03T22:30:26.863Z,3.10
2019-05-03T22:32:57.460Z,3.00
2019-05-03T22:35:27.798Z,3.23
2019-05-03T22:37:58.146Z,3.10
2019-05-03T22:40:28.503Z,3.37
2019-05-03T22:42:58.810Z,2.83
2019-05-03T22:45:29.126Z,2.73
2019-05-03T22:47:59.515Z,2.80
2019-05-03T22:50:29.870Z,2.50
2019-05-03T22:53:00.213Z,2.87
2019-05-03T22:55:30.544Z,2.30
2019-05-03T22:58:00.836Z,2.40
2019-05-03T23:00:31.148Z,2.50
2019-05-03T23:03:01.458Z,2.53
2019-05-03T23:05:31.735Z,2.73
2019-05-03T23:08:02.054Z,2.90
2019-05-03T23:10:32.383Z,2.77
2019-05-03T23:13:02.698Z,2.50
2019-05-03T23:15:34.686Z,2.47
2019-05-03T23:18:05.204Z,2.70
2019-05-03T23:20:41.830Z,2.50
2019-05-03T23:23:31.073Z,2.80
2019-05-03T23:26:01.416Z,2.30
2019-05-03T23:28:31.694Z,2.50
2019-05-03T23:31:02.057Z,2.70
2019-05-03T23:33:34.366Z,2.50
2019-05-03T23:36:04.695Z,2.60
2019-05-03T23:38:35.038Z,2.70
2019-05-03T23:41:05.410Z,2.47
2019-05-03T23:43:35.884Z,3.10
2019-05-03T23:46:06.345Z,2.60
2019-05-03T23:48:36.644Z,2.43
2019-05-03T23:51:08.524Z,2.90
2019-05-03T23:53:38.825Z,3.30
2019-05-03T23:56:15.551Z,2.67
2019-05-03T23:58:45.879Z,3.10
